Time;durP1;ratioP1;P1;durP2;ratioP2;P2;SDS_P1;SDS_P2;PMS_P1;PMS_P2;Temp;Humidity;BMP_temperature;BMP_pressure;BME280_temperature;BME280_humidity;BME280_pressure;Samples;Min_cycle;Max_cycle;Signal;HPM_P1;HPM_P2
2022/05/16 00:00:11;;;;;;;7.95;1.60;;;;;;;;;;10431235;28;20041;-74
2022/05/16 00:05:13;;;;;;;5.43;1.50;;;;;;;;;;10437850;28;20128;-76
2022/05/16 00:10:15;;;;;;;4.35;1.50;;;;;;;;;;10434845;28;20116;-74
2022/05/16 00:15:19;;;;;;;9.25;2.00;;;;;;;;;;10441052;28;20044;-75
2022/05/16 00:20:21;;;;;;;7.97;1.63;;;;;;;;;;10427756;28;20386;-75
2022/05/16 00:25:22;;;;;;;3.35;1.20;;;;;;;;;;10427535;28;20416;-74
2022/05/16 00:30:24;;;;;;;3.92;1.40;;;;;;;;;;10398059;28;20493;-74
2022/05/16 00:35:26;;;;;;;5.22;1.60;;;;;;;;;;10427222;28;20544;-75
2022/05/16 00:40:28;;;;;;;4.32;1.40;;;;;;;;;;10419446;28;20053;-74
2022/05/16 00:45:29;;;;;;;5.15;1.65;;;;;;;;;;10431251;28;20055;-74
2022/05/16 00:50:33;;;;;;;6.35;1.52;;;;;;;;;;10415470;28;20049;-73
2022/05/16 00:55:37;;;;;;;4.63;1.83;;;;;;;;;;10426979;28;20049;-74
2022/05/16 01:00:39;;;;;;;5.10;1.25;;;;;;;;;;10429976;28;20056;-74
2022/05/16 01:05:41;;;;;;;4.55;1.30;;;;;;;;;;10425393;28;20155;-74
2022/05/16 01:10:43;;;;;;;5.30;1.27;;;;;;;;;;10406537;28;20069;-75
2022/05/16 01:15:46;;;;;;;7.38;1.40;;;;;;;;;;10426781;28;20049;-74
2022/05/16 01:21:06;;;;;;;3.35;1.20;;;;;;;;;;10411025;28;20439;-75
2022/05/16 01:26:11;;;;;;;3.15;1.25;;;;;;;;;;10416914;28;20128;-73
2022/05/16 01:31:12;;;;;;;3.83;1.45;;;;;;;;;;10420908;28;20079;-75
2022/05/16 01:36:14;;;;;;;5.05;1.60;;;;;;;;;;10442091;28;20051;-73
2022/05/16 01:41:17;;;;;;;6.50;1.40;;;;;;;;;;10418347;28;20053;-73
2022/05/16 01:46:20;;;;;;;5.68;1.50;;;;;;;;;;10431339;28;20212;-72
2022/05/16 01:51:22;;;;;;;6.68;1.52;;;;;;;;;;10423562;28;20151;-74
2022/05/16 01:56:23;;;;;;;5.95;1.50;;;;;;;;;;10437429;28;20048;-74
2022/05/16 02:01:25;;;;;;;7.47;1.73;;;;;;;;;;10447373;28;20102;-73
2022/05/16 02:06:27;;;;;;;4.03;1.48;;;;;;;;;;10431665;28;20224;-74
2022/05/16 02:11:28;;;;;;;7.13;1.60;;;;;;;;;;10417607;28;20492;-73
2022/05/16 02:16:30;;;;;;;4.40;1.58;;;;;;;;;;10430072;28;20045;-74
2022/05/16 02:26:51;;;;;;;10.30;1.83;;;;;;;;;;10423280;28;20043;-73
2022/05/16 02:31:54;;;;;;;3.70;1.48;;;;;;;;;;10433172;28;20029;-73
2022/05/16 02:36:56;;;;;;;5.28;1.63;;;;;;;;;;10441791;28;20056;-73
2022/05/16 02:41:58;;;;;;;3.90;1.50;;;;;;;;;;10405576;28;20045;-74
2022/05/16 02:46:59;;;;;;;5.45;1.30;;;;;;;;;;10405719;28;20053;-72
2022/05/16 02:52:01;;;;;;;5.50;1.40;;;;;;;;;;10429121;28;20037;-74
2022/05/16 02:57:03;;;;;;;4.05;1.35;;;;;;;;;;10419086;28;20491;-74
2022/05/16 03:02:06;;;;;;;10.50;1.83;;;;;;;;;;10429057;28;20099;-74
2022/05/16 03:07:08;;;;;;;6.03;1.80;;;;;;;;;;10409407;28;20148;-74
2022/05/16 03:12:10;;;;;;;4.03;1.63;;;;;;;;;;10430783;28;20136;-74
2022/05/16 03:17:12;;;;;;;5.13;1.50;;;;;;;;;;10411656;28;20042;-74
2022/05/16 03:22:13;;;;;;;4.70;1.45;;;;;;;;;;10437325;28;20036;-73
2022/05/16 03:27:15;;;;;;;3.60;1.35;;;;;;;;;;10436456;28;20049;-74
2022/05/16 03:32:16;;;;;;;5.07;1.60;;;;;;;;;;10441103;28;20388;-75
2022/05/16 03:37:17;;;;;;;4.72;1.45;;;;;;;;;;10426301;28;20090;-74
2022/05/16 03:42:19;;;;;;;4.43;1.70;;;;;;;;;;10423493;28;20140;-74
2022/05/16 03:47:20;;;;;;;5.85;1.95;;;;;;;;;;10429211;28;20049;-76
2022/05/16 03:52:22;;;;;;;5.22;1.75;;;;;;;;;;10397396;28;20041;-73
2022/05/16 03:57:23;;;;;;;4.35;1.50;;;;;;;;;;10417663;28;20038;-75
2022/05/16 04:02:24;;;;;;;6.97;1.88;;;;;;;;;;10446309;28;20068;-74
2022/05/16 04:07:26;;;;;;;7.15;2.25;;;;;;;;;;10433629;28;20484;-75
2022/05/16 04:12:29;;;;;;;8.25;2.78;;;;;;;;;;10419476;28;20045;-73
2022/05/16 04:17:30;;;;;;;4.70;1.63;;;;;;;;;;10426203;28;20056;-74
2022/05/16 04:22:31;;;;;;;7.15;1.90;;;;;;;;;;10427796;28;20045;-74
2022/05/16 04:27:33;;;;;;;6.20;1.95;;;;;;;;;;10435788;28;20037;-74
2022/05/16 04:32:34;;;;;;;7.93;1.90;;;;;;;;;;10448009;28;20198;-74
2022/05/16 04:37:36;;;;;;;6.28;1.80;;;;;;;;;;10425942;28;20048;-73
2022/05/16 04:42:40;;;;;;;6.70;1.67;;;;;;;;;;10422742;28;20041;-73
2022/05/16 04:47:43;;;;;;;4.53;1.75;;;;;;;;;;10416357;28;20314;-74
2022/05/16 04:52:45;;;;;;;8.48;2.20;;;;;;;;;;10415392;28;20044;-74
2022/05/16 04:57:46;;;;;;;6.22;2.00;;;;;;;;;;10433896;28;20484;-73
2022/05/16 05:02:48;;;;;;;4.82;1.65;;;;;;;;;;10432604;28;20147;-73
2022/05/16 05:07:55;;;;;;;6.82;1.98;;;;;;;;;;10420200;28;20072;-74
2022/05/16 05:18:17;;;;;;;5.22;1.73;;;;;;;;;;10430763;28;20052;-75
2022/05/16 05:23:18;;;;;;;6.38;1.92;;;;;;;;;;10431956;28;20041;-74
2022/05/16 05:28:20;;;;;;;10.48;1.92;;;;;;;;;;10418141;28;20045;-73
2022/05/16 05:33:21;;;;;;;5.47;1.70;;;;;;;;;;10451565;28;20053;-73
2022/05/16 05:38:24;;;;;;;7.07;2.20;;;;;;;;;;10417897;28;20123;-72
2022/05/16 05:43:25;;;;;;;3.83;1.80;;;;;;;;;;10434364;28;20534;-73
2022/05/16 05:48:28;;;;;;;7.18;1.98;;;;;;;;;;10425012;28;20331;-75
2022/05/16 05:53:29;;;;;;;7.05;1.73;;;;;;;;;;10413680;28;20463;-74
2022/05/16 05:58:32;;;;;;;5.22;1.75;;;;;;;;;;10413500;28;20048;-73
2022/05/16 06:03:34;;;;;;;7.35;1.60;;;;;;;;;;10435056;28;20037;-74
2022/05/16 06:08:36;;;;;;;8.80;1.98;;;;;;;;;;10431988;28;20075;-73
2022/05/16 06:13:38;;;;;;;5.03;1.60;;;;;;;;;;10434631;28;20051;-73
2022/05/16 06:18:40;;;;;;;9.07;2.00;;;;;;;;;;10438231;28;20052;-73
2022/05/16 06:23:41;;;;;;;5.78;1.83;;;;;;;;;;10424267;28;20049;-72
2022/05/16 06:28:43;;;;;;;6.28;2.10;;;;;;;;;;10420788;28;20063;-74
2022/05/16 06:33:47;;;;;;;9.18;2.30;;;;;;;;;;10425011;28;20041;-74
2022/05/16 06:38:48;;;;;;;6.65;2.13;;;;;;;;;;10419847;28;20067;-75
2022/05/16 06:43:50;;;;;;;5.35;1.80;;;;;;;;;;10438588;28;20063;-75
2022/05/16 06:48:51;;;;;;;6.07;1.65;;;;;;;;;;10421044;28;20084;-76
2022/05/16 06:53:53;;;;;;;6.32;2.00;;;;;;;;;;10421567;28;20075;-75
2022/05/16 06:58:54;;;;;;;6.80;1.95;;;;;;;;;;10439198;28;20757;-77
2022/05/16 07:03:56;;;;;;;8.90;2.08;;;;;;;;;;10428422;28;20142;-76
2022/05/16 07:08:57;;;;;;;5.85;2.10;;;;;;;;;;10443766;28;20052;-75
2022/05/16 07:13:59;;;;;;;8.90;2.38;;;;;;;;;;10456375;28;20444;-76
2022/05/16 07:19:01;;;;;;;7.43;2.60;;;;;;;19.71;nan;103254.63;10420424;28;20147;-76
2022/05/16 07:24:03;;;;;;;9.15;2.08;;;;;;;20.16;nan;103455.81;10430232;28;20052;-77
2022/05/16 07:29:04;;;;;;;7.20;2.13;;;;;;;20.31;nan;103513.72;10443992;28;20057;-76
2022/05/16 07:34:06;;;;;;;8.15;1.98;;;;;;;20.62;nan;103644.78;10446442;28;20036;-76
2022/05/16 07:39:07;;;;;;;8.65;2.17;;;;;;;21.24;nan;103908.00;10449141;28;20559;-75
2022/05/16 07:44:09;;;;;;;8.63;2.33;;;;;;;21.81;nan;104148.38;10444535;28;20053;-78
2022/05/16 07:49:13;;;;;;;5.30;1.83;;;;;;;21.83;nan;104149.34;10436781;28;20057;-79
2022/05/16 07:54:15;;;;;;;8.32;2.00;;;;;;;21.09;nan;103819.75;10433849;28;20076;-76
2022/05/16 07:59:16;;;;;;;7.50;2.15;;;;;;;20.96;nan;103752.91;10438631;28;20037;-76
2022/05/16 08:04:18;;;;;;;8.77;1.83;;;;;;;;;;10435914;28;20045;-77
2022/05/16 08:14:43;;;;;;;7.90;2.42;;;;;;;;;;10425957;28;20502;-73
2022/05/16 08:19:45;;;;;;;8.48;2.00;;;;;;;;;;10423121;28;20128;-73
2022/05/16 08:24:46;;;;;;;8.10;2.03;;;;;;;;;;10427719;28;20055;-74
2022/05/16 08:29:47;;;;;;;5.78;1.85;;;;;;;;;;10427265;28;20445;-74
2022/05/16 08:34:50;;;;;;;6.03;2.05;;;;;;;;;;10432362;28;20498;-74
2022/05/16 08:39:52;;;;;;;8.38;1.88;;;;;;;;;;10396259;28;20049;-73
2022/05/16 08:45:01;;;;;;;9.65;1.90;;;;;;;;;;10431914;28;20045;-73
2022/05/16 08:50:09;;;;;;;9.05;2.03;;;;;;;;;;10446367;28;20216;-74
2022/05/16 08:55:13;;;;;;;10.80;3.15;;;;;;;;;;10424387;28;20044;-73
2022/05/16 09:00:24;;;;;;;7.65;2.22;;;;;;;;;;10403065;28;20052;-74
2022/05/16 09:05:32;;;;;;;6.70;1.95;;;;;;;;;;10429247;28;20043;-74
2022/05/16 09:10:47;;;;;;;9.43;2.00;;;;;;;;;;10435596;28;20041;-77
2022/05/16 09:15:55;;;;;;;15.40;2.08;;;;;;;;;;10422027;28;20055;-77
2022/05/16 09:20:58;;;;;;;7.35;2.00;;;;;;;;;;10432952;28;20386;-78
2022/05/16 09:26:08;;;;;;;6.97;1.95;;;;;;;;;;10431672;28;20156;-77
2022/05/16 09:31:21;;;;;;;12.15;2.10;;;;;;;;;;10412546;28;20037;-76
2022/05/16 09:36:25;;;;;;;11.07;2.22;;;;;;;;;;10414290;28;20179;-75
2022/05/16 09:41:51;;;;;;;8.32;2.20;;;;;;;;;;10432154;28;20043;-77
2022/05/16 09:47:12;;;;;;;5.18;1.75;;;;;;;;;;10411899;28;20564;-77
2022/05/16 09:52:21;;;;;;;6.43;1.90;;;;;;;;;;10419412;28;20085;-74
2022/05/16 09:57:22;;;;;;;5.53;2.10;;;;;;;;;;10426032;28;20296;-76
2022/05/16 10:02:25;;;;;;;11.63;1.90;;;;;;;;;;10430799;28;20221;-74
2022/05/16 10:07:29;;;;;;;11.88;2.00;;;;;;;;;;10441874;28;20459;-76
2022/05/16 10:12:31;;;;;;;6.28;2.28;;;;;;;;;;10438916;28;20123;-77
2022/05/16 10:17:35;;;;;;;11.00;1.92;;;;;;;;;;10445625;28;20048;-71
2022/05/16 10:22:44;;;;;;;8.95;2.13;;;;;;;;;;10440403;28;20061;-76
2022/05/16 10:28:04;;;;;;;7.70;2.08;;;;;;;;;;10454150;28;20041;-76
2022/05/16 10:33:25;;;;;;;8.07;1.92;;;;;;;;;;10449289;28;20406;-78
2022/05/16 10:38:38;;;;;;;11.82;2.40;;;;;;;;;;10419480;28;20451;-75
2022/05/16 10:43:58;;;;;;;7.60;2.28;;;;;;;;;;10446464;28;20085;-78
2022/05/16 10:49:02;;;;;;;12.20;3.33;;;;;;;;;;10428772;28;20049;-77
2022/05/16 10:54:04;;;;;;;6.88;1.90;;;;;;;;;;10420210;28;20061;-75
2022/05/16 10:59:05;;;;;;;9.27;2.15;;;;;;;;;;10409117;28;20269;-75
2022/05/16 11:04:26;;;;;;;4.97;1.90;;;;;;;;;;10454572;28;20048;-80
2022/05/16 11:09:27;;;;;;;10.73;2.40;;;;;;;;;;10408609;28;20040;-79
2022/05/16 11:14:40;;;;;;;9.18;2.10;;;;;;;;;;10439635;28;20419;-77
2022/05/16 11:19:50;;;;;;;7.68;2.38;;;;;;;;;;10436093;28;20049;-77
2022/05/16 11:25:05;;;;;;;6.85;2.03;;;;;;;;;;10442834;28;20033;-74
2022/05/16 11:30:15;;;;;;;9.35;2.15;;;;;;;;;;10443919;28;20045;-76
2022/05/16 11:35:36;;;;;;;9.68;2.13;;;;;;;;;;10406432;28;20523;-77
2022/05/16 11:40:37;;;;;;;11.35;1.98;;;;;;;;;;10447680;28;20450;-74
2022/05/16 11:45:48;;;;;;;9.73;2.60;;;;;;;;;;10444873;28;20044;-75
2022/05/16 11:51:07;;;;;;;10.90;2.30;;;;;;;;;;10444655;28;20045;-73
2022/05/16 12:01:32;;;;;;;7.93;2.65;;;;;;;;;;10426927;28;20058;-76
2022/05/16 12:06:35;;;;;;;9.45;2.20;;;;;;;;;;10418853;28;20076;-74
2022/05/16 12:11:47;;;;;;;10.60;2.20;;;;;;;;;;10437775;28;20045;-75
2022/05/16 12:16:51;;;;;;;5.82;1.90;;;;;;;;;;10438432;28;20043;-74
2022/05/16 12:22:04;;;;;;;8.30;2.30;;;;;;;;;;10445407;28;20055;-76
2022/05/16 12:27:06;;;;;;;11.20;2.22;;;;;;;;;;10432772;28;20207;-75
2022/05/16 12:32:07;;;;;;;10.10;1.90;;;;;;;;;;10429306;28;20127;-75
2022/05/16 12:37:11;;;;;;;6.15;2.13;;;;;;;;;;10443432;28;20496;-75
2022/05/16 12:42:32;;;;;;;8.38;2.25;;;;;;;;;;10427029;28;20041;-74
2022/05/16 12:47:54;;;;;;;11.48;2.00;;;;;;;;;;10432686;28;20045;-73
2022/05/16 12:53:14;;;;;;;8.15;2.53;;;;;;;;;;10425349;28;20421;-74
2022/05/16 12:58:35;;;;;;;8.43;1.67;;;;;;;;;;10406081;28;20076;-73
2022/05/16 13:03:48;;;;;;;7.40;2.10;;;;;;;;;;10417301;28;20048;-74
2022/05/16 13:09:00;;;;;;;7.70;2.00;;;;;;;;;;10409163;28;20037;-73
2022/05/16 13:14:10;;;;;;;9.98;1.95;;;;;;;;;;10411101;28;20044;-74
2022/05/16 13:19:13;;;;;;;6.60;2.13;;;;;;;;;;10409538;28;20482;-75
2022/05/16 13:24:15;;;;;;;36.92;3.50;;;;;;;;;;10391738;28;20445;-75
2022/05/16 13:29:23;;;;;;;6.07;2.30;;;;;;;;;;10405153;28;20511;-72
2022/05/16 13:34:28;;;;;;;11.77;2.00;;;;;;;;;;10384395;28;20047;-70
2022/05/16 13:39:33;;;;;;;17.58;3.97;;;;;;;;;;10416594;28;20139;-71
2022/05/16 13:44:44;;;;;;;7.82;2.05;;;;;;;;;;10396923;28;20049;-72
2022/05/16 13:49:46;;;;;;;10.35;2.30;;;;;;;;;;10420840;28;20128;-71
2022/05/16 13:54:48;;;;;;;11.30;2.55;;;;;;;;;;10431483;28;20067;-69
2022/05/16 14:00:09;;;;;;;8.20;2.10;;;;;;;;;;10410243;28;20053;-71
2022/05/16 14:05:11;;;;;;;9.93;2.20;;;;;;;;;;10396016;28;20596;-71
2022/05/16 14:10:15;;;;;;;8.70;2.25;;;;;;;;;;10398577;28;20413;-71
2022/05/16 14:15:20;;;;;;;7.65;2.28;;;;;;;;;;10424804;28;20128;-78
2022/05/16 14:20:21;;;;;;;10.27;2.60;;;;;;;;;;10421897;28;20431;-71
2022/05/16 14:25:26;;;;;;;8.82;2.33;;;;;;;;;;10426461;28;20548;-73
2022/05/16 14:30:29;;;;;;;6.80;2.10;;;;;;;;;;10417915;28;20045;-72
2022/05/16 14:35:31;;;;;;;10.82;2.47;;;;;;;;;;10417984;28;20045;-72
2022/05/16 14:40:34;;;;;;;8.70;2.38;;;;;;;;;;10403047;28;20037;-73
2022/05/16 14:51:08;;;;;;;11.60;2.20;;;;;;;;;;10427653;28;20628;-74
2022/05/16 14:56:11;;;;;;;10.32;3.08;;;;;;;;;;10416393;28;20052;-74
2022/05/16 15:06:37;;;;;;;9.40;2.38;;;;;;;;;;10431125;28;20049;-73
2022/05/16 15:11:43;;;;;;;8.45;2.58;;;;;;;;;;10439757;28;20631;-70
2022/05/16 15:16:44;;;;;;;7.70;2.10;;;;;;;;;;10418841;28;20086;-73
2022/05/16 15:21:47;;;;;;;9.02;2.33;;;;;;;;;;10426372;28;20520;-72
2022/05/16 15:26:48;;;;;;;9.43;2.70;;;;;;;;;;10439787;28;20044;-72
2022/05/16 15:31:50;;;;;;;32.60;3.22;;;;;;;;;;10433029;28;20408;-72
2022/05/16 15:36:51;;;;;;;9.15;2.30;;;;;;;;;;10405023;28;20107;-73
2022/05/16 15:41:53;;;;;;;6.20;2.13;;;;;;;;;;10430093;28;20447;-72
2022/05/16 15:46:55;;;;;;;13.48;2.67;;;;;;;;;;10423158;28;20417;-71
2022/05/16 15:51:56;;;;;;;6.85;2.10;;;;;;;;;;10436752;28;20685;-71
2022/05/16 15:56:57;;;;;;;12.13;2.53;;;;;;;;;;10409658;28;20122;-71
2022/05/16 16:01:59;;;;;;;10.48;3.05;;;;;;;;;;10441283;28;20037;-70
2022/05/16 16:12:21;;;;;;;12.90;2.50;;;;;;;;;;10425123;28;20539;-70
2022/05/16 16:17:23;;;;;;;8.52;2.20;;;;;;;;;;10435328;28;20053;-73
2022/05/16 16:22:24;;;;;;;9.52;2.42;;;;;;;;;;10422954;28;20597;-66
2022/05/16 16:27:27;;;;;;;10.77;2.80;;;;;;;;;;10407337;28;20103;-69
2022/05/16 16:32:28;;;;;;;7.68;3.30;;;;;;;;;;10424735;28;20041;-70
2022/05/16 16:37:33;;;;;;;11.50;2.42;;;;;;;;;;10435654;28;20045;-68
2022/05/16 16:42:40;;;;;;;10.23;2.90;;;;;;;;;;10435776;28;20037;-69
2022/05/16 16:47:44;;;;;;;8.98;2.45;;;;;;;;;;10439168;28;20558;-70
2022/05/16 16:58:07;;;;;;;9.65;2.83;;;;;;;;;;10422699;28;20124;-69
2022/05/16 17:03:10;;;;;;;8.30;2.78;;;;;;;;;;10434350;28;20037;-70
2022/05/16 17:08:15;;;;;;;12.07;3.00;;;;;;;;;;10417216;28;20077;-69
2022/05/16 17:13:21;;;;;;;12.05;2.72;;;;;;;;;;10437960;28;20052;-69
2022/05/16 17:18:23;;;;;;;13.32;2.83;;;;;;;;;;10433000;28;20036;-70
2022/05/16 17:23:25;;;;;;;11.20;3.40;;;;;;;;;;10432760;28;20528;-70
2022/05/16 17:28:26;;;;;;;15.43;3.45;;;;;;;;;;10428269;28;20140;-73
2022/05/16 17:33:28;;;;;;;13.55;3.08;;;;;;;;;;10421288;28;20520;-74
2022/05/16 17:38:50;;;;;;;9.85;3.03;;;;;;;;;;10408201;28;20411;-71
2022/05/16 17:43:51;;;;;;;10.55;3.00;;;;;;;;;;10430808;28;20129;-72
2022/05/16 17:48:53;;;;;;;10.05;3.03;;;;;;;;;;10412732;28;20056;-72
2022/05/16 17:53:55;;;;;;;11.50;2.83;;;;;;;;;;10404478;28;20040;-74
2022/05/16 17:58:57;;;;;;;9.38;3.28;;;;;;;;;;10415026;28;20051;-73
2022/05/16 18:03:58;;;;;;;17.80;3.10;;;;;;;;;;10420808;28;20044;-72
2022/05/16 18:09:02;;;;;;;23.90;5.22;;;;;;;;;;10421749;28;20594;-73
2022/05/16 18:14:03;;;;;;;19.10;7.63;;;;;;;;;;10409709;28;20155;-73
2022/05/16 18:19:05;;;;;;;16.98;9.38;;;;;;;;;;10403547;28;20049;-74
2022/05/16 18:24:09;;;;;;;23.00;12.75;;;;;;;;;;10427642;28;20046;-74
2022/05/16 18:29:12;;;;;;;30.38;15.68;;;;;;;;;;10407252;28;20045;-73
2022/05/16 18:34:16;;;;;;;26.10;16.13;;;;;;;;;;10416977;28;20398;-73
2022/05/16 18:39:18;;;;;;;30.05;17.20;;;;;;;;;;10419584;28;20499;-76
2022/05/16 18:54:59;;;;;;;36.70;19.80;;;;;;;;;;10439105;28;20041;-75
2022/05/16 19:00:03;;;;;;;30.48;18.67;;;;;;;;;;10407248;28;20051;-78
2022/05/16 19:05:06;;;;;;;32.20;18.92;;;;;;;;;;10438037;28;20963;-77
2022/05/16 19:10:08;;;;;;;31.27;18.58;;;;;;;;;;10414949;28;20125;-76
2022/05/16 19:15:09;;;;;;;31.60;19.05;;;;;;;;;;10427305;28;20431;-74
2022/05/16 19:20:12;;;;;;;28.27;17.95;;;;;;;;;;10400244;28;20463;-76
2022/05/16 19:25:14;;;;;;;28.92;18.15;;;;;;;;;;10421524;28;20124;-81
2022/05/16 19:35:46;;;;;;;31.35;16.95;;;;;;;;;;10427018;28;20025;-74
2022/05/16 19:40:48;;;;;;;25.13;15.95;;;;;;;;;;10407324;28;20428;-73
2022/05/16 19:45:51;;;;;;;25.00;15.13;;;;;;;;;;10414267;28;20064;-74
2022/05/16 19:50:53;;;;;;;24.65;14.65;;;;;;;;;;10405630;28;20045;-75
2022/05/16 19:55:54;;;;;;;22.23;12.98;;;;;;;;;;10421958;28;20067;-73
2022/05/16 20:00:56;;;;;;;23.15;12.15;;;;;;;;;;10416714;28;20053;-74
2022/05/16 20:05:57;;;;;;;20.00;12.10;;;;;;;;;;10414722;28;20033;-73
2022/05/16 20:10:59;;;;;;;19.30;12.95;;;;;;;;;;10413326;28;20099;-74
2022/05/16 20:16:02;;;;;;;16.30;11.75;;;;;;;;;;10419109;28;20053;-74
2022/05/16 20:21:04;;;;;;;16.63;10.68;;;;;;;;;;10432963;28;20041;-74
2022/05/16 20:26:06;;;;;;;17.80;12.48;;;;;;;;;;10442134;28;20619;-74
2022/05/16 20:31:07;;;;;;;19.80;13.43;;;;;;;;;;10434372;28;20056;-74
2022/05/16 20:36:09;;;;;;;21.42;13.30;;;;;;;;;;10411918;28;20041;-74
2022/05/16 20:41:11;;;;;;;23.13;15.35;;;;;;;;;;10430111;28;20071;-74
2022/05/16 20:46:12;;;;;;;21.77;16.48;;;;;;;;;;10434678;28;20071;-73
2022/05/16 20:51:14;;;;;;;23.08;16.88;;;;;;;;;;10417718;28;20044;-73
2022/05/16 20:56:16;;;;;;;26.25;17.42;;;;;;;;;;10419857;28;20140;-74
2022/05/16 21:01:32;;;;;;;27.65;18.42;;;;;;;;;;10419849;28;20052;-73
2022/05/16 21:06:34;;;;;;;26.73;19.00;;;;;;;;;;10431817;28;20132;-73
2022/05/16 21:11:35;;;;;;;29.50;20.10;;;;;;;;;;10427230;28;20049;-73
2022/05/16 21:16:37;;;;;;;32.85;21.58;;;;;;;;;;10431400;28;20037;-74
2022/05/16 21:21:39;;;;;;;31.73;21.80;;;;;;;;;;10397791;28;20064;-74
2022/05/16 21:26:40;;;;;;;31.00;21.85;;;;;;;;;;10425558;28;20071;-74
2022/05/16 21:31:41;;;;;;;34.05;22.10;;;;;;;;;;10433920;28;20074;-74
2022/05/16 21:36:43;;;;;;;36.97;22.45;;;;;;;;;;10425135;28;20531;-74
2022/05/16 21:41:45;;;;;;;40.10;23.42;;;;;;;;;;10431580;28;20411;-74
2022/05/16 21:46:46;;;;;;;39.05;23.67;;;;;;;;;;10439788;28;20049;-74
2022/05/16 21:51:48;;;;;;;40.60;23.80;;;;;;;;;;10430595;28;20717;-73
2022/05/16 21:56:49;;;;;;;35.88;24.33;;;;;;;;;;10432895;28;20059;-73
2022/05/16 22:01:51;;;;;;;40.85;24.55;;;;;;;;;;10436990;28;20049;-73
2022/05/16 22:06:53;;;;;;;38.45;25.15;;;;;;;;;;10428747;28;20099;-73
2022/05/16 22:11:58;;;;;;;38.40;24.45;;;;;;;;;;10425997;28;20041;-74
2022/05/16 22:16:59;;;;;;;38.40;23.52;;;;;;;;;;10423453;28;20045;-73
2022/05/16 22:22:04;;;;;;;39.17;24.65;;;;;;;;;;10425607;28;20423;-73
2022/05/16 22:27:06;;;;;;;35.15;24.38;;;;;;;;;;10432694;28;20131;-73
2022/05/16 22:32:07;;;;;;;40.42;24.73;;;;;;;;;;10430942;28;20043;-73
2022/05/16 22:37:09;;;;;;;42.22;25.45;;;;;;;;;;10426681;28;20440;-73
2022/05/16 22:42:12;;;;;;;34.63;24.00;;;;;;;;;;10417121;28;20421;-73
2022/05/16 22:47:13;;;;;;;43.00;26.10;;;;;;;;;;10421377;28;20072;-73
2022/05/16 22:52:15;;;;;;;43.28;25.88;;;;;;;;;;10419338;28;20068;-73
2022/05/16 22:57:18;;;;;;;42.90;25.63;;;;;;;;;;10417056;28;20056;-73
2022/05/16 23:07:40;;;;;;;34.70;22.05;;;;;;;;;;10432544;28;20040;-73
2022/05/16 23:12:42;;;;;;;40.85;22.40;;;;;;;;;;10429964;28;20103;-74
2022/05/16 23:17:45;;;;;;;40.00;22.05;;;;;;;;;;10432663;28;20235;-73
2022/05/16 23:22:46;;;;;;;32.05;20.73;;;;;;;;;;10435791;28;20069;-73
2022/05/16 23:27:48;;;;;;;32.67;20.23;;;;;;;;;;10412502;28;20045;-74
2022/05/16 23:32:50;;;;;;;32.15;20.65;;;;;;;;;;10443675;28;20049;-73
2022/05/16 23:37:51;;;;;;;32.90;19.88;;;;;;;;;;10415113;28;20037;-73
2022/05/16 23:42:54;;;;;;;37.25;20.67;;;;;;;;;;10434836;28;20085;-74
2022/05/16 23:47:55;;;;;;;33.38;18.88;;;;;;;;;;10440133;28;20098;-74
2022/05/16 23:52:57;;;;;;;35.03;20.90;;;;;;;;;;10435012;28;20561;-74
2022/05/16 23:57:58;;;;;;;34.38;20.50;;;;;;;;;;10412363;28;20088;-74
